createdAt,value
2023-04-26T00:00:24.369Z,46
2023-04-26T00:05:23.855Z,46
2023-04-26T00:10:15.706Z,45
2023-04-26T00:15:16.529Z,46
2023-04-26T00:20:27.807Z,46
2023-04-26T00:25:15.568Z,45
2023-04-26T00:30:18.028Z,46
2023-04-26T00:35:15.945Z,45
2023-04-26T00:40:20.116Z,46
2023-04-26T00:45:22.262Z,46
2023-04-26T00:50:21.988Z,46
2023-04-26T00:55:15.676Z,46
2023-04-26T01:00:22.929Z,45
2023-04-26T01:05:15.807Z,46
2023-04-26T01:10:15.633Z,46
2023-04-26T01:15:17.135Z,46
2023-04-26T01:20:16.037Z,46
2023-04-26T01:25:20.159Z,46
2023-04-26T01:30:18.005Z,46
2023-04-26T01:35:15.812Z,46
2023-04-26T01:40:17.946Z,46
2023-04-26T01:45:17.898Z,45
2023-04-26T01:50:21.680Z,45
2023-04-26T01:55:20.609Z,46
2023-04-26T02:00:22.769Z,46
2023-04-26T02:05:17.007Z,46
2023-04-26T02:10:21.757Z,46
2023-04-26T02:15:23.060Z,46
2023-04-26T02:20:17.907Z,46
2023-04-26T02:25:13.640Z,46
2023-04-26T02:30:19.028Z,46
2023-04-26T02:35:13.757Z,46
2023-04-26T02:40:18.654Z,45
2023-04-26T02:45:28.658Z,46
2023-04-26T02:50:14.656Z,45
2023-04-26T02:55:14.717Z,46
2023-04-26T03:00:14.623Z,46
2023-04-26T03:05:20.774Z,46
2023-04-26T03:10:14.555Z,46
2023-04-26T03:15:22.720Z,46
2023-04-26T03:20:18.903Z,46
2023-04-26T03:25:19.670Z,46
2023-04-26T03:30:22.928Z,46
2023-04-26T03:35:17.630Z,46
2023-04-26T03:40:14.513Z,46
2023-04-26T03:45:22.698Z,46
2023-04-26T03:50:20.475Z,45
2023-04-26T03:55:21.496Z,46
2023-04-26T04:00:16.370Z,46
2023-04-26T04:05:21.218Z,46
2023-04-26T04:10:20.255Z,46
2023-04-26T04:15:16.138Z,48
2023-04-26T04:20:16.210Z,50
2023-04-26T04:25:24.187Z,50
2023-04-26T04:30:16.174Z,50
2023-04-26T04:35:24.141Z,49
2023-04-26T04:40:14.352Z,48
2023-04-26T04:45:14.383Z,48
2023-04-26T04:50:18.312Z,48
2023-04-26T04:55:16.212Z,51
2023-04-26T05:00:28.137Z,51
2023-04-26T05:05:18.872Z,49
2023-04-26T05:10:19.811Z,49
2023-04-26T05:15:18.512Z,50
2023-04-26T05:20:14.331Z,49
2023-04-26T05:25:23.134Z,49
2023-04-26T05:30:19.964Z,48
2023-04-26T05:35:25.925Z,48
2023-04-26T05:40:17.780Z,48
2023-04-26T05:45:18.628Z,47
2023-04-26T05:50:14.574Z,48
2023-04-26T05:55:14.388Z,47
2023-04-26T06:00:16.394Z,46
2023-04-26T06:05:21.576Z,46
2023-04-26T06:10:17.856Z,46
2023-04-26T06:15:15.919Z,46
2023-04-26T06:20:15.869Z,47
2023-04-26T06:25:13.822Z,47
2023-04-26T06:30:13.684Z,46
2023-04-26T06:35:14.636Z,46
2023-04-26T06:40:16.403Z,46
2023-04-26T06:45:14.289Z,46
2023-04-26T06:50:16.194Z,46
2023-04-26T06:55:16.063Z,46
2023-04-26T07:00:28.300Z,46
2023-04-26T07:05:17.080Z,45
2023-04-26T07:10:15.946Z,46
2023-04-26T07:15:14.119Z,46
2023-04-26T07:20:15.970Z,46
2023-04-26T07:25:17.951Z,45
2023-04-26T07:30:21.839Z,46
2023-04-26T07:35:13.604Z,46
2023-04-26T07:40:26.652Z,46
2023-04-26T07:45:20.465Z,46
2023-04-26T07:50:16.303Z,46
2023-04-26T07:55:17.614Z,46
2023-04-26T08:00:13.830Z,46
2023-04-26T08:05:23.805Z,45
2023-04-26T08:10:13.934Z,46
2023-04-26T08:15:16.171Z,46
2023-04-26T08:20:16.044Z,46
2023-04-26T08:25:15.800Z,46
2023-04-26T08:30:17.764Z,46
2023-04-26T08:35:22.775Z,46
2023-04-26T08:40:26.781Z,46
2023-04-26T08:45:14.658Z,46
2023-04-26T08:50:16.327Z,46
2023-04-26T08:55:18.252Z,46
2023-04-26T09:00:14.112Z,46
2023-04-26T09:05:25.093Z,46
2023-04-26T09:10:13.812Z,46
2023-04-26T09:15:13.832Z,45
2023-04-26T09:20:15.986Z,46
2023-04-26T09:25:19.889Z,45
2023-04-26T09:30:18.013Z,46
2023-04-26T09:35:16.124Z,44
2023-04-26T09:40:24.086Z,46
2023-04-26T09:45:18.161Z,45
2023-04-26T09:50:18.152Z,46
2023-04-26T09:55:35.820Z,46
2023-04-26T10:00:20.012Z,45
2023-04-26T10:05:19.201Z,44
2023-04-26T10:10:14.855Z,45
2023-04-26T10:15:15.429Z,45
2023-04-26T10:20:23.663Z,46
2023-04-26T10:25:23.070Z,50
2023-04-26T10:30:15.914Z,50
2023-04-26T10:35:15.704Z,51
2023-04-26T10:40:16.638Z,50
2023-04-26T10:45:18.727Z,50
2023-04-26T10:50:23.796Z,50
2023-04-26T10:55:27.703Z,49
2023-04-26T11:00:18.681Z,49
2023-04-26T11:05:17.172Z,49
2023-04-26T11:10:22.084Z,49
2023-04-26T11:15:24.032Z,49
2023-04-26T11:20:17.859Z,49
2023-04-26T11:25:24.269Z,49
2023-04-26T11:30:16.116Z,49
2023-04-26T11:35:18.229Z,48
2023-04-26T11:40:14.343Z,48
2023-04-26T11:45:22.177Z,47
2023-04-26T11:50:14.077Z,48
2023-04-26T11:55:15.974Z,48
2023-04-26T12:00:16.149Z,47
2023-04-26T12:05:19.531Z,47
2023-04-26T12:10:22.585Z,47
2023-04-26T12:15:22.003Z,47
2023-04-26T12:20:17.900Z,46
2023-04-26T12:25:20.049Z,47
2023-04-26T12:30:13.914Z,47
2023-04-26T12:35:19.989Z,46
2023-04-26T12:40:15.849Z,47
2023-04-26T12:45:13.774Z,47
2023-04-26T12:50:18.533Z,46
2023-04-26T12:55:33.162Z,47
2023-04-26T13:00:18.410Z,46
2023-04-26T13:05:16.644Z,47
2023-04-26T13:10:18.813Z,47
2023-04-26T13:15:17.951Z,46
2023-04-26T13:20:15.920Z,46
2023-04-26T13:25:17.920Z,46
2023-04-26T13:30:17.758Z,46
2023-04-26T13:35:14.440Z,46
2023-04-26T13:40:24.605Z,46
2023-04-26T13:45:14.422Z,46
2023-04-26T13:50:18.246Z,46
2023-04-26T13:55:20.252Z,46
2023-04-26T14:00:30.026Z,46
2023-04-26T14:05:17.916Z,46
2023-04-26T14:10:16.256Z,46
2023-04-26T14:15:14.069Z,46
2023-04-26T14:20:18.018Z,46
2023-04-26T14:25:17.912Z,46
2023-04-26T14:30:20.142Z,46
2023-04-26T14:35:17.916Z,46
2023-04-26T14:40:15.771Z,46
2023-04-26T14:45:27.843Z,46
2023-04-26T14:50:20.845Z,45
2023-04-26T14:55:17.738Z,45
2023-04-26T15:00:22.955Z,43
2023-04-26T15:05:19.073Z,45
2023-04-26T15:10:22.099Z,45
2023-04-26T15:15:20.226Z,45
2023-04-26T15:20:14.376Z,45
2023-04-26T15:25:14.415Z,45
2023-04-26T15:30:16.813Z,45
2023-04-26T15:35:23.583Z,45
2023-04-26T15:40:14.763Z,45
2023-04-26T15:45:16.985Z,45
2023-04-26T15:50:16.076Z,46
2023-04-26T15:55:18.235Z,46
2023-04-26T16:00:14.659Z,46
2023-04-26T16:05:21.274Z,46
2023-04-26T16:10:18.321Z,46
2023-04-26T16:15:16.377Z,46
2023-04-26T16:20:18.508Z,46
2023-04-26T16:25:23.215Z,46
2023-04-26T16:30:14.136Z,45
2023-04-26T16:35:20.999Z,46
2023-04-26T16:40:15.806Z,46
2023-04-26T16:45:19.684Z,46
2023-04-26T16:50:16.534Z,46
2023-04-26T16:55:22.286Z,46
2023-04-26T17:00:16.326Z,46
2023-04-26T17:05:15.808Z,46
2023-04-26T17:10:17.849Z,46
2023-04-26T17:15:22.185Z,46
2023-04-26T17:20:14.169Z,46
2023-04-26T17:25:16.262Z,46
2023-04-26T17:30:16.393Z,47
2023-04-26T17:35:18.181Z,47
2023-04-26T17:40:16.613Z,48
2023-04-26T17:45:22.732Z,48
2023-04-26T17:50:17.655Z,46
2023-04-26T17:55:22.624Z,48
2023-04-26T18:00:18.561Z,47
2023-04-26T18:05:16.648Z,47
2023-04-26T18:10:18.789Z,47
2023-04-26T18:15:18.625Z,47
2023-04-26T18:20:22.596Z,47
2023-04-26T18:25:22.402Z,47
2023-04-26T18:30:20.380Z,46
2023-04-26T18:35:16.448Z,47
2023-04-26T18:40:20.248Z,47
2023-04-26T18:45:18.281Z,47
2023-04-26T18:50:16.148Z,47
2023-04-26T18:55:18.052Z,47
2023-04-26T19:00:17.944Z,46
2023-04-26T19:05:16.774Z,47
2023-04-26T19:10:14.562Z,47
2023-04-26T19:15:18.599Z,47
2023-04-26T19:20:20.779Z,48
2023-04-26T19:25:18.521Z,48
2023-04-26T19:30:24.494Z,48
2023-04-26T19:35:16.362Z,47
2023-04-26T19:40:18.159Z,48
2023-04-26T19:45:20.127Z,47
2023-04-26T19:50:15.857Z,47
2023-04-26T19:55:21.939Z,47
2023-04-26T20:00:17.738Z,47
2023-04-26T20:05:18.470Z,47
2023-04-26T20:10:16.386Z,47
2023-04-26T20:15:16.350Z,46
2023-04-26T20:20:18.149Z,47
2023-04-26T20:25:15.984Z,47
2023-04-26T20:30:18.405Z,47
2023-04-26T20:35:18.420Z,47
2023-04-26T20:40:16.209Z,47
2023-04-26T20:45:14.637Z,46
2023-04-26T20:50:16.637Z,47
2023-04-26T20:55:16.362Z,47
2023-04-26T21:00:16.343Z,47
2023-04-26T21:05:20.332Z,47
2023-04-26T21:10:20.228Z,47
2023-04-26T21:15:18.060Z,46
2023-04-26T21:20:22.219Z,47
2023-04-26T21:25:28.157Z,47
2023-04-26T21:30:22.252Z,47
2023-04-26T21:35:18.147Z,47
2023-04-26T21:40:15.958Z,47
2023-04-26T21:45:24.359Z,47
2023-04-26T21:50:16.137Z,47
2023-04-26T21:55:15.713Z,47
2023-04-26T22:00:28.678Z,47
2023-04-26T22:05:22.517Z,47
2023-04-26T22:10:14.509Z,47
2023-04-26T22:15:16.642Z,47
2023-04-26T22:20:14.704Z,46
2023-04-26T22:25:16.629Z,46
2023-04-26T22:30:47.658Z,46
2023-04-26T22:35:21.009Z,46
2023-04-26T22:40:29.784Z,46
2023-04-26T22:45:16.686Z,46
2023-04-26T22:50:22.674Z,45
2023-04-26T22:55:14.698Z,46
2023-04-26T23:00:29.156Z,46
2023-04-26T23:05:22.310Z,46
2023-04-26T23:10:24.582Z,46
2023-04-26T23:15:14.779Z,46
2023-04-26T23:20:17.485Z,45
2023-04-26T23:25:20.425Z,46
2023-04-26T23:30:14.359Z,46
2023-04-26T23:35:14.281Z,46
2023-04-26T23:40:16.507Z,46
2023-04-26T23:45:17.032Z,46
2023-04-26T23:50:19.949Z,45
2023-04-26T23:55:17.830Z,46
